createdAt,value
2022-10-09T00:03:28.442Z,4.35
2022-10-09T00:05:55.135Z,4.63
2022-10-09T00:08:21.803Z,5.70
2022-10-09T00:10:48.971Z,5.35
2022-10-09T00:13:15.812Z,5.63
2022-10-09T00:15:44.921Z,4.68
2022-10-09T00:18:14.800Z,4.80
2022-10-09T00:20:44.235Z,4.75
2022-10-09T00:23:14.540Z,4.18
2022-10-09T00:25:54.350Z,4.30
2022-10-09T00:28:23.182Z,4.15
2022-10-09T00:30:50.314Z,3.95
2022-10-09T00:33:17.326Z,3.28
2022-10-09T00:35:44.051Z,3.53
2022-10-09T00:38:11.249Z,3.60
2022-10-09T00:40:38.394Z,3.92
2022-10-09T00:43:10.450Z,3.50
2022-10-09T00:45:37.202Z,3.30
2022-10-09T00:48:07.125Z,4.22
2022-10-09T00:50:44.615Z,3.75
2022-10-09T00:53:16.030Z,3.55
2022-10-09T00:55:43.329Z,4.05
2022-10-09T01:00:39.288Z,3.58
2022-10-09T01:03:06.175Z,3.47
2022-10-09T01:06:17.162Z,3.67
2022-10-09T01:09:01.558Z,3.40
2022-10-09T01:11:35.270Z,4.22
2022-10-09T01:14:33.856Z,3.95
2022-10-09T01:17:22.722Z,4.05
2022-10-09T01:20:08.006Z,4.95
2022-10-09T01:23:12.370Z,4.53
2022-10-09T01:25:45.159Z,4.68
2022-10-09T01:28:14.566Z,5.22
2022-10-09T01:30:42.268Z,5.18
2022-10-09T01:33:10.984Z,5.05
2022-10-09T01:35:38.586Z,4.60
2022-10-09T01:38:07.009Z,4.10
2022-10-09T01:40:34.510Z,3.42
2022-10-09T01:43:01.321Z,3.90
2022-10-09T01:45:38.211Z,4.13
2022-10-09T01:48:05.602Z,3.72
2022-10-09T01:53:06.118Z,3.47
2022-10-09T01:55:41.769Z,4.28
2022-10-09T01:58:18.478Z,4.10
2022-10-09T02:00:58.725Z,4.57
2022-10-09T02:03:26.781Z,4.35
2022-10-09T02:05:55.568Z,4.07
2022-10-09T02:08:24.332Z,4.60
2022-10-09T02:10:56.444Z,4.30
2022-10-09T02:13:23.833Z,4.82
2022-10-09T02:18:43.586Z,5.30
2022-10-09T02:21:15.185Z,5.25
2022-10-09T02:23:44.164Z,5.22
2022-10-09T02:26:12.509Z,5.00
2022-10-09T02:28:45.123Z,5.38
2022-10-09T02:31:19.418Z,4.85
2022-10-09T02:34:08.362Z,5.20
2022-10-09T02:36:35.545Z,4.80
2022-10-09T02:39:03.482Z,5.40
2022-10-09T02:41:30.173Z,5.07
2022-10-09T02:43:56.838Z,5.68
2022-10-09T02:46:24.597Z,5.07
2022-10-09T02:48:51.422Z,5.10
2022-10-09T02:51:18.435Z,5.65
2022-10-09T02:53:45.586Z,5.68
2022-10-09T02:56:12.280Z,5.70
2022-10-09T02:58:39.505Z,6.30
2022-10-09T03:01:06.700Z,5.68
2022-10-09T03:03:33.496Z,5.63
2022-10-09T03:06:09.629Z,5.15
2022-10-09T03:08:37.486Z,6.60
2022-10-09T03:11:04.533Z,6.18
2022-10-09T03:13:32.430Z,6.78
2022-10-09T03:16:06.667Z,5.97
2022-10-09T03:18:33.745Z,5.53
2022-10-09T03:21:00.611Z,5.28
2022-10-09T03:23:27.522Z,5.63
2022-10-09T03:26:02.308Z,7.03
2022-10-09T03:28:29.728Z,6.28
2022-10-09T03:30:57.031Z,6.70
2022-10-09T03:33:23.782Z,9.45
2022-10-09T03:35:50.648Z,9.05
2022-10-09T03:38:17.445Z,8.15
2022-10-09T03:40:44.149Z,9.55
2022-10-09T03:43:10.893Z,9.82
2022-10-09T03:45:42.078Z,9.55
2022-10-09T03:48:10.597Z,10.80
2022-10-09T03:50:38.431Z,10.43
2022-10-09T03:53:06.398Z,10.25
2022-10-09T03:55:33.350Z,10.77
2022-10-09T03:58:00.157Z,10.38
2022-10-09T04:00:27.476Z,11.40
2022-10-09T04:02:54.431Z,10.27
2022-10-09T04:05:21.405Z,11.15
2022-10-09T04:07:48.071Z,12.20
2022-10-09T04:10:14.836Z,11.25
2022-10-09T04:12:41.869Z,10.73
2022-10-09T04:15:09.764Z,9.82
2022-10-09T04:17:36.880Z,11.00
2022-10-09T04:20:04.236Z,10.85
2022-10-09T04:24:57.569Z,12.77
2022-10-09T04:27:24.268Z,11.15
2022-10-09T04:29:50.925Z,11.93
2022-10-09T04:32:17.648Z,11.57
2022-10-09T04:34:44.375Z,12.93
2022-10-09T04:37:11.057Z,11.70
2022-10-09T04:39:38.013Z,12.57
2022-10-09T04:42:06.178Z,11.70
2022-10-09T04:44:32.856Z,12.70
2022-10-09T04:46:59.522Z,13.23
2022-10-09T04:49:26.205Z,14.38
2022-10-09T04:51:52.862Z,13.40
2022-10-09T04:54:19.529Z,13.30
2022-10-09T04:56:46.211Z,14.30
2022-10-09T04:59:12.884Z,14.32
2022-10-09T05:01:39.608Z,14.55
2022-10-09T05:04:06.275Z,14.43
2022-10-09T05:06:32.934Z,14.38
2022-10-09T05:08:59.605Z,15.10
2022-10-09T05:11:26.525Z,14.30
2022-10-09T05:13:57.999Z,15.40
2022-10-09T05:16:27.796Z,14.77
2022-10-09T05:18:56.746Z,14.30
2022-10-09T05:21:24.586Z,14.18
2022-10-09T05:23:53.887Z,14.55
2022-10-09T05:26:22.221Z,14.25
2022-10-09T05:28:49.023Z,13.30
2022-10-09T05:31:25.985Z,13.98
2022-10-09T05:33:53.623Z,14.50
2022-10-09T05:36:21.384Z,13.25
2022-10-09T05:38:48.103Z,12.55
2022-10-09T05:41:16.549Z,12.95
2022-10-09T05:43:44.928Z,13.10
2022-10-09T05:46:17.519Z,12.68
2022-10-09T05:48:47.096Z,12.10
2022-10-09T05:51:19.826Z,12.85
2022-10-09T05:53:47.983Z,12.50
2022-10-09T05:56:18.928Z,12.45
2022-10-09T05:58:50.895Z,12.55
2022-10-09T06:01:18.053Z,12.27
2022-10-09T06:03:51.749Z,12.32
2022-10-09T06:06:19.521Z,11.95
2022-10-09T06:08:46.582Z,10.68
2022-10-09T06:11:16.016Z,12.30
2022-10-09T06:13:43.841Z,12.25
2022-10-09T06:16:12.844Z,11.65
2022-10-09T06:18:49.337Z,11.98
2022-10-09T06:21:16.989Z,11.73
2022-10-09T06:23:44.271Z,11.60
2022-10-09T06:26:13.074Z,11.85
2022-10-09T06:28:40.975Z,11.65
2022-10-09T06:31:16.482Z,12.30
2022-10-09T06:33:45.024Z,12.10
2022-10-09T06:36:20.594Z,12.50
2022-10-09T06:38:47.958Z,12.75
2022-10-09T06:43:43.221Z,12.05
2022-10-09T06:46:11.913Z,11.60
2022-10-09T06:48:40.179Z,11.90
2022-10-09T06:51:15.572Z,12.68
2022-10-09T06:53:44.978Z,12.98
2022-10-09T06:56:12.489Z,11.77
2022-10-09T06:58:40.152Z,11.48
2022-10-09T07:01:12.971Z,12.30
2022-10-09T07:03:42.982Z,12.38
2022-10-09T07:06:18.617Z,12.25
2022-10-09T07:08:47.645Z,12.25
2022-10-09T07:11:17.534Z,10.93
2022-10-09T07:13:44.909Z,12.30
2022-10-09T07:18:39.368Z,11.52
2022-10-09T07:21:08.617Z,11.20
2022-10-09T07:23:36.065Z,11.55
2022-10-09T07:26:09.357Z,12.40
2022-10-09T07:28:36.082Z,11.35
2022-10-09T07:31:04.660Z,10.88
2022-10-09T07:33:31.693Z,11.15
2022-10-09T07:36:00.363Z,10.57
2022-10-09T07:38:27.728Z,10.82
2022-10-09T07:43:21.660Z,10.85
2022-10-09T07:45:48.463Z,11.25
2022-10-09T07:48:15.194Z,10.93
2022-10-09T07:50:41.920Z,11.00
2022-10-09T07:53:08.810Z,11.02
2022-10-09T07:55:36.130Z,11.40
2022-10-09T08:00:29.611Z,10.90
2022-10-09T08:02:56.329Z,9.93
2022-10-09T08:05:23.054Z,11.02
2022-10-09T08:07:49.736Z,10.63
2022-10-09T08:10:16.462Z,11.27
2022-10-09T08:12:43.108Z,11.40
2022-10-09T08:15:10.029Z,12.20
2022-10-09T08:17:36.905Z,10.68
2022-10-09T08:20:03.830Z,11.75
2022-10-09T08:22:30.527Z,11.45
2022-10-09T08:24:57.704Z,11.98
2022-10-09T08:27:24.414Z,12.20
2022-10-09T08:30:05.867Z,11.23
2022-10-09T08:32:40.962Z,12.15
2022-10-09T08:35:08.138Z,11.50
2022-10-09T08:37:34.874Z,11.57
2022-10-09T08:40:01.901Z,11.60
2022-10-09T08:42:44.182Z,12.05
2022-10-09T08:45:16.862Z,11.60
2022-10-09T08:47:45.899Z,10.25
2022-10-09T08:50:47.211Z,10.90
2022-10-09T08:53:25.845Z,10.32
2022-10-09T08:55:57.532Z,9.82
2022-10-09T08:58:33.945Z,10.55
2022-10-09T09:01:28.072Z,10.15
2022-10-09T09:04:29.887Z,9.90
2022-10-09T09:07:12.183Z,9.68
2022-10-09T09:10:04.240Z,9.70
2022-10-09T09:12:50.314Z,8.57
2022-10-09T09:15:38.372Z,10.35
2022-10-09T09:18:18.315Z,9.30
2022-10-09T09:20:55.918Z,10.35
2022-10-09T09:23:29.221Z,9.32
2022-10-09T09:25:56.512Z,9.38
2022-10-09T09:31:02.921Z,9.40
2022-10-09T09:34:05.258Z,8.73
2022-10-09T09:36:55.118Z,9.15
2022-10-09T09:40:34.429Z,8.13
2022-10-09T09:42:20.736Z,7.88
2022-10-09T09:45:02.059Z,8.40
2022-10-09T09:47:45.412Z,8.73
2022-10-09T09:50:35.121Z,8.48
2022-10-09T09:53:15.510Z,8.75
2022-10-09T09:55:42.600Z,8.60
2022-10-09T09:58:17.471Z,7.85
2022-10-09T10:00:57.861Z,7.95
2022-10-09T10:03:25.463Z,8.00
2022-10-09T10:05:52.492Z,9.45
2022-10-09T10:08:32.293Z,8.80
2022-10-09T10:11:01.252Z,8.07
2022-10-09T10:13:35.829Z,8.48
2022-10-09T10:16:03.166Z,8.75
2022-10-09T10:18:36.320Z,7.97
2022-10-09T10:21:07.984Z,9.23
2022-10-09T10:23:41.838Z,9.10
2022-10-09T10:26:21.890Z,8.88
2022-10-09T10:28:57.006Z,8.75
2022-10-09T10:31:40.939Z,8.70
2022-10-09T10:34:17.242Z,8.75
2022-10-09T10:36:45.246Z,8.40
2022-10-09T10:39:23.930Z,8.30
2022-10-09T10:41:53.778Z,8.95
2022-10-09T10:44:43.194Z,7.85
2022-10-09T10:47:20.641Z,8.73
2022-10-09T10:49:47.468Z,8.52
2022-10-09T10:52:39.993Z,8.93
2022-10-09T10:55:48.464Z,8.75
2022-10-09T10:58:32.151Z,8.27
2022-10-09T11:01:19.771Z,8.68
2022-10-09T11:04:08.107Z,8.77
2022-10-09T11:06:40.066Z,9.20
2022-10-09T11:09:25.004Z,8.70
2022-10-09T11:12:47.358Z,8.18
2022-10-09T11:15:26.500Z,8.45
2022-10-09T11:18:03.588Z,8.80
2022-10-09T11:21:01.499Z,8.93
2022-10-09T11:23:34.217Z,8.00
2022-10-09T11:26:36.770Z,7.00
2022-10-09T11:29:15.182Z,8.35
2022-10-09T11:31:56.505Z,7.78
2022-10-09T11:34:35.038Z,7.97
2022-10-09T11:37:03.604Z,7.88
2022-10-09T11:39:32.936Z,7.20
2022-10-09T11:42:00.580Z,8.63
2022-10-09T11:44:53.358Z,8.18
2022-10-09T11:47:40.028Z,9.60
2022-10-09T11:50:24.662Z,10.68
2022-10-09T11:52:51.432Z,8.48
2022-10-09T11:55:20.124Z,8.30
2022-10-09T11:57:47.615Z,7.85
2022-10-09T12:00:15.778Z,7.72
2022-10-09T12:02:43.788Z,8.07
2022-10-09T12:05:34.029Z,7.57
2022-10-09T12:08:39.155Z,8.02
2022-10-09T12:11:09.167Z,8.63
2022-10-09T12:13:39.127Z,7.90
2022-10-09T12:16:08.147Z,8.15
2022-10-09T12:18:38.644Z,8.68
2022-10-09T12:21:09.064Z,7.93
2022-10-09T12:23:39.820Z,8.05
2022-10-09T12:26:12.611Z,7.63
2022-10-09T12:28:43.292Z,9.07
2022-10-09T12:31:36.982Z,8.70
2022-10-09T12:34:32.437Z,8.98
2022-10-09T12:37:21.296Z,8.40
2022-10-09T12:39:49.609Z,7.40
2022-10-09T12:42:23.127Z,8.13
2022-10-09T12:44:53.331Z,7.70
2022-10-09T12:47:26.673Z,7.03
2022-10-09T12:49:58.702Z,7.05
2022-10-09T12:52:26.029Z,6.72
2022-10-09T12:54:52.978Z,6.95
2022-10-09T12:57:23.852Z,8.43
2022-10-09T12:59:54.012Z,7.18
2022-10-09T13:02:22.072Z,7.45
2022-10-09T13:05:00.899Z,6.88
2022-10-09T13:07:29.803Z,7.00
2022-10-09T13:10:07.067Z,7.22
2022-10-09T13:12:35.121Z,7.15
2022-10-09T13:15:07.600Z,6.55
2022-10-09T13:17:41.616Z,6.93
2022-10-09T13:20:17.220Z,7.43
2022-10-09T13:22:58.953Z,7.60
2022-10-09T13:25:27.942Z,6.65
2022-10-09T13:27:54.708Z,7.25
2022-10-09T13:30:21.534Z,6.82
2022-10-09T13:32:48.372Z,8.52
2022-10-09T13:35:15.200Z,8.48
2022-10-09T13:37:42.060Z,7.07
2022-10-09T13:40:14.437Z,7.05
2022-10-09T13:42:42.794Z,6.55
2022-10-09T13:45:10.871Z,6.60
2022-10-09T13:47:37.945Z,6.90
2022-10-09T13:50:05.083Z,6.72
2022-10-09T13:52:31.794Z,6.90
2022-10-09T13:54:58.454Z,6.43
2022-10-09T13:57:25.212Z,7.00
2022-10-09T13:59:51.907Z,7.07
2022-10-09T14:02:19.086Z,7.40
2022-10-09T14:04:45.763Z,7.18
2022-10-09T14:07:12.691Z,7.43
2022-10-09T14:09:39.426Z,7.65
2022-10-09T14:12:06.156Z,7.20
2022-10-09T14:14:32.882Z,7.28
2022-10-09T14:16:59.829Z,6.85
2022-10-09T14:19:27.917Z,6.85
2022-10-09T14:21:55.768Z,6.93
2022-10-09T14:24:22.708Z,6.80
2022-10-09T14:26:51.651Z,6.45
2022-10-09T14:29:21.781Z,5.88
2022-10-09T14:31:51.625Z,5.93
2022-10-09T14:34:18.510Z,5.93
2022-10-09T14:36:45.236Z,6.03
2022-10-09T14:39:11.961Z,5.70
2022-10-09T14:41:38.634Z,5.50
2022-10-09T14:44:06.054Z,5.25
2022-10-09T14:46:34.027Z,5.55
2022-10-09T14:49:07.059Z,5.70
2022-10-09T14:51:37.108Z,6.25
2022-10-09T14:54:04.768Z,5.80
2022-10-09T14:56:31.736Z,5.80
2022-10-09T14:59:00.490Z,5.50
2022-10-09T15:01:29.165Z,6.97
2022-10-09T15:03:56.067Z,5.72
2022-10-09T15:06:25.719Z,5.72
2022-10-09T15:08:55.942Z,5.82
2022-10-09T15:11:23.252Z,5.88
2022-10-09T15:16:18.756Z,6.35
2022-10-09T15:18:46.829Z,6.13
2022-10-09T15:21:20.177Z,7.35
2022-10-09T15:23:47.872Z,6.57
2022-10-09T15:26:15.426Z,6.05
2022-10-09T15:28:43.564Z,6.50
2022-10-09T15:31:24.019Z,6.50
2022-10-09T15:33:51.842Z,6.40
2022-10-09T15:36:19.372Z,6.32
2022-10-09T15:38:46.706Z,6.88
2022-10-09T15:43:48.499Z,7.15
2022-10-09T15:46:15.846Z,7.32
2022-10-09T15:51:13.505Z,6.07
2022-10-09T15:53:42.139Z,6.63
2022-10-09T15:56:11.736Z,6.97
2022-10-09T15:58:38.425Z,6.65
2022-10-09T16:01:07.607Z,6.38
2022-10-09T16:03:37.149Z,7.07
2022-10-09T16:06:06.866Z,8.23
2022-10-09T16:08:33.742Z,7.07
2022-10-09T16:11:02.946Z,7.65
2022-10-09T16:13:29.637Z,6.95
2022-10-09T16:15:56.314Z,6.57
2022-10-09T16:18:24.234Z,10.27
2022-10-09T16:20:51.645Z,11.50
2022-10-09T16:23:18.397Z,11.98
2022-10-09T16:25:55.816Z,11.20
2022-10-09T16:28:22.546Z,10.85
2022-10-09T16:30:49.379Z,11.10
2022-10-09T16:33:16.069Z,12.05
2022-10-09T16:35:42.786Z,11.40
2022-10-09T16:38:09.666Z,11.77
2022-10-09T16:41:01.709Z,12.05
2022-10-09T16:43:28.594Z,11.02
2022-10-09T16:45:55.256Z,10.48
2022-10-09T16:48:21.918Z,11.80
2022-10-09T16:50:48.600Z,12.55
2022-10-09T16:53:15.496Z,12.65
2022-10-09T16:55:42.186Z,12.02
2022-10-09T16:58:08.959Z,11.15
2022-10-09T17:00:35.747Z,10.00
2022-10-09T17:03:02.460Z,11.25
2022-10-09T17:05:29.139Z,10.88
2022-10-09T17:07:56.007Z,9.98
2022-10-09T17:10:22.684Z,10.63
2022-10-09T17:12:49.366Z,10.13
2022-10-09T17:15:16.602Z,10.48
2022-10-09T17:17:43.362Z,9.25
2022-10-09T17:20:10.128Z,12.07
2022-10-09T17:22:36.839Z,13.85
2022-10-09T17:25:03.804Z,11.30
2022-10-09T17:27:30.737Z,10.90
2022-10-09T17:29:57.436Z,10.75
2022-10-09T17:32:25.108Z,10.95
2022-10-09T17:34:51.809Z,12.25
2022-10-09T17:37:18.495Z,10.38
2022-10-09T17:39:49.705Z,11.00
2022-10-09T17:42:18.616Z,11.35
2022-10-09T17:44:45.270Z,9.98
2022-10-09T17:47:12.099Z,11.25
2022-10-09T17:49:38.797Z,11.38
2022-10-09T17:52:05.539Z,12.95
2022-10-09T17:54:32.249Z,14.05
2022-10-09T17:57:00.572Z,12.50
2022-10-09T17:59:27.511Z,10.55
2022-10-09T18:01:54.284Z,9.40
2022-10-09T18:04:20.958Z,10.40
2022-10-09T18:06:47.744Z,10.82
2022-10-09T18:09:14.441Z,9.93
2022-10-09T18:11:41.158Z,9.45
2022-10-09T18:14:07.827Z,9.85
2022-10-09T18:16:37.768Z,10.23
2022-10-09T18:19:13.567Z,10.43
2022-10-09T18:21:43.370Z,10.02
2022-10-09T18:24:10.427Z,10.80
2022-10-09T18:26:37.330Z,10.00
2022-10-09T18:29:04.234Z,12.77
2022-10-09T18:31:31.122Z,13.77
2022-10-09T18:33:59.033Z,14.80
2022-10-09T18:36:31.214Z,14.80
2022-10-09T18:39:13.252Z,17.73
2022-10-09T18:41:40.658Z,13.68
2022-10-09T18:44:12.562Z,12.60
2022-10-09T18:46:42.572Z,11.52
2022-10-09T18:49:11.725Z,11.65
2022-10-09T18:51:40.985Z,11.52
2022-10-09T18:54:08.335Z,12.32
2022-10-09T18:59:06.926Z,12.52
2022-10-09T19:01:33.780Z,15.63
2022-10-09T19:04:00.707Z,13.68
2022-10-09T19:06:27.449Z,13.88
2022-10-09T19:08:57.764Z,13.55
2022-10-09T19:11:24.477Z,15.73
2022-10-09T19:13:51.164Z,15.23
2022-10-09T19:16:17.826Z,14.10
2022-10-09T19:18:44.483Z,14.23
2022-10-09T19:21:14.975Z,13.07
2022-10-09T19:23:42.750Z,13.13
2022-10-09T19:26:11.723Z,13.00
2022-10-09T19:28:39.178Z,12.48
2022-10-09T19:31:07.385Z,11.55
2022-10-09T19:33:34.472Z,13.32
2022-10-09T19:36:01.308Z,14.10
2022-10-09T19:38:28.371Z,13.18
2022-10-09T19:40:55.335Z,10.88
2022-10-09T19:43:23.531Z,13.35
2022-10-09T19:46:00.067Z,14.38
2022-10-09T19:48:26.789Z,13.00
2022-10-09T19:50:53.463Z,12.93
2022-10-09T19:53:20.125Z,12.43
2022-10-09T19:55:46.856Z,13.05
2022-10-09T19:58:14.060Z,13.00
2022-10-09T20:00:45.486Z,11.50
2022-10-09T20:03:12.192Z,11.57
2022-10-09T20:05:38.969Z,11.68
2022-10-09T20:08:05.846Z,12.13
2022-10-09T20:10:36.227Z,10.98
2022-10-09T20:13:03.841Z,11.48
2022-10-09T20:15:31.088Z,11.35
2022-10-09T20:17:58.128Z,9.52
2022-10-09T20:20:26.900Z,10.85
2022-10-09T20:22:54.167Z,10.93
2022-10-09T20:27:47.514Z,9.27
2022-10-09T20:30:16.038Z,9.75
2022-10-09T20:32:42.770Z,7.40
2022-10-09T20:35:10.006Z,7.40
2022-10-09T20:37:36.716Z,7.75
2022-10-09T20:40:04.170Z,9.43
2022-10-09T20:42:31.924Z,9.48
2022-10-09T20:44:58.628Z,10.00
2022-10-09T20:47:25.402Z,10.25
2022-10-09T20:49:52.262Z,9.60
2022-10-09T20:52:18.992Z,8.00
2022-10-09T20:54:45.677Z,7.88
2022-10-09T20:57:12.371Z,8.38
2022-10-09T20:59:39.058Z,8.38
2022-10-09T21:02:05.767Z,6.05
2022-10-09T21:04:32.662Z,5.80
2022-10-09T21:06:59.360Z,5.32
2022-10-09T21:09:30.876Z,6.55
2022-10-09T21:11:59.727Z,5.35
2022-10-09T21:14:26.421Z,6.03
2022-10-09T21:16:53.094Z,6.85
2022-10-09T21:19:20.023Z,6.60
2022-10-09T21:21:50.852Z,5.30
2022-10-09T21:24:18.029Z,5.97
2022-10-09T21:26:46.950Z,6.28
2022-10-09T21:29:14.483Z,7.95
2022-10-09T21:31:41.987Z,8.60
2022-10-09T21:37:19.396Z,8.50
2022-10-09T21:39:35.108Z,7.80
2022-10-09T21:42:01.772Z,7.93
2022-10-09T21:44:28.590Z,7.85
2022-10-09T21:46:55.301Z,8.05
2022-10-09T21:49:24.926Z,7.25
2022-10-09T21:51:51.945Z,8.85
2022-10-09T21:54:19.088Z,9.18
2022-10-09T21:56:46.048Z,9.60
2022-10-09T21:59:13.056Z,9.50
2022-10-09T22:01:39.926Z,7.80
2022-10-09T22:04:06.610Z,8.40
2022-10-09T22:06:33.273Z,8.43
2022-10-09T22:09:00.060Z,8.05
2022-10-09T22:11:26.773Z,8.15
2022-10-09T22:13:55.114Z,7.88
2022-10-09T22:16:21.790Z,8.95
2022-10-09T22:18:48.459Z,8.10
2022-10-09T22:21:16.260Z,8.50
2022-10-09T22:23:43.508Z,9.25
2022-10-09T22:26:17.887Z,9.10
2022-10-09T22:28:46.225Z,8.38
2022-10-09T22:31:19.365Z,7.35
2022-10-09T22:33:51.166Z,6.53
2022-10-09T22:36:19.582Z,5.88
2022-10-09T22:38:46.475Z,5.70
2022-10-09T22:41:18.256Z,5.85
2022-10-09T22:43:47.168Z,6.68
2022-10-09T22:46:22.622Z,7.60
2022-10-09T22:48:50.137Z,6.57
2022-10-09T22:51:18.521Z,7.70
2022-10-09T22:53:46.109Z,6.07
2022-10-09T22:56:16.025Z,6.68
2022-10-09T22:58:44.052Z,9.02
2022-10-09T23:01:21.974Z,9.50
2022-10-09T23:06:17.953Z,8.50
2022-10-09T23:08:46.526Z,9.15
2022-10-09T23:11:14.302Z,8.60
2022-10-09T23:13:40.994Z,8.85
2022-10-09T23:16:09.967Z,9.35
2022-10-09T23:18:37.351Z,8.02
2022-10-09T23:23:35.022Z,8.10
2022-10-09T23:26:06.330Z,8.65
2022-10-09T23:28:34.603Z,8.20
2022-10-09T23:31:22.012Z,7.15
2022-10-09T23:33:49.090Z,8.57
2022-10-09T23:36:18.972Z,7.07
2022-10-09T23:38:46.238Z,6.85
2022-10-09T23:41:15.233Z,7.53
2022-10-09T23:43:44.241Z,7.00
2022-10-09T23:46:14.742Z,6.93
2022-10-09T23:48:42.247Z,7.97
2022-10-09T23:51:09.107Z,8.75
2022-10-09T23:53:36.569Z,8.82
2022-10-09T23:58:54.056Z,4.25
